sensor_id;sensor_type;location;lat;lon;timestamp;P1;durP1;ratioP1;P2;durP2;ratioP2
72117;SDS011;59992;47.490;8.736;2023-01-19T00:01:44;14.60;;;6.40;;
72117;SDS011;59992;47.490;8.736;2023-01-19T00:04:13;15.60;;;6.10;;
72117;SDS011;59992;47.490;8.736;2023-01-19T00:06:43;15.40;;;6.50;;
72117;SDS011;59992;47.490;8.736;2023-01-19T00:09:13;13.60;;;6.70;;
72117;SDS011;59992;47.490;8.736;2023-01-19T00:11:43;12.50;;;6.60;;
72117;SDS011;59992;47.490;8.736;2023-01-19T00:14:13;13.10;;;6.40;;
72117;SDS011;59992;47.490;8.736;2023-01-19T00:16:43;15.00;;;6.90;;
72117;SDS011;59992;47.490;8.736;2023-01-19T00:19:13;13.70;;;6.50;;
72117;SDS011;59992;47.490;8.736;2023-01-19T00:21:43;12.20;;;6.70;;
72117;SDS011;59992;47.490;8.736;2023-01-19T00:24:13;12.10;;;6.10;;
72117;SDS011;59992;47.490;8.736;2023-01-19T00:26:43;12.90;;;5.90;;
72117;SDS011;59992;47.490;8.736;2023-01-19T00:29:13;13.10;;;6.20;;
72117;SDS011;59992;47.490;8.736;2023-01-19T00:31:43;12.10;;;6.20;;
72117;SDS011;59992;47.490;8.736;2023-01-19T00:34:12;15.50;;;7.00;;
72117;SDS011;59992;47.490;8.736;2023-01-19T00:36:42;10.80;;;5.60;;
72117;SDS011;59992;47.490;8.736;2023-01-19T00:39:12;11.20;;;6.20;;
72117;SDS011;59992;47.490;8.736;2023-01-19T00:41:42;11.50;;;5.80;;
72117;SDS011;59992;47.490;8.736;2023-01-19T00:44:25;12.70;;;5.90;;
72117;SDS011;59992;47.490;8.736;2023-01-19T00:46:55;11.50;;;6.00;;
72117;SDS011;59992;47.490;8.736;2023-01-19T00:49:25;13.40;;;6.00;;
72117;SDS011;59992;47.490;8.736;2023-01-19T00:51:55;12.40;;;6.20;;
72117;SDS011;59992;47.490;8.736;2023-01-19T00:54:25;15.30;;;5.70;;
72117;SDS011;59992;47.490;8.736;2023-01-19T00:56:55;12.30;;;6.50;;
72117;SDS011;59992;47.490;8.736;2023-01-19T00:59:25;12.20;;;6.40;;
72117;SDS011;59992;47.490;8.736;2023-01-19T01:01:55;11.30;;;5.70;;
72117;SDS011;59992;47.490;8.736;2023-01-19T01:04:24;11.50;;;5.70;;
72117;SDS011;59992;47.490;8.736;2023-01-19T01:06:54;10.90;;;6.00;;
72117;SDS011;59992;47.490;8.736;2023-01-19T01:09:24;11.60;;;5.90;;
72117;SDS011;59992;47.490;8.736;2023-01-19T01:11:53;12.90;;;6.20;;
72117;SDS011;59992;47.490;8.736;2023-01-19T01:14:23;16.90;;;6.80;;
72117;SDS011;59992;47.490;8.736;2023-01-19T01:16:54;13.40;;;6.50;;
72117;SDS011;59992;47.490;8.736;2023-01-19T01:19:24;20.60;;;6.60;;
72117;SDS011;59992;47.490;8.736;2023-01-19T01:21:53;11.80;;;6.00;;
72117;SDS011;59992;47.490;8.736;2023-01-19T01:24:23;12.50;;;5.00;;
72117;SDS011;59992;47.490;8.736;2023-01-19T01:26:53;14.10;;;5.90;;
72117;SDS011;59992;47.490;8.736;2023-01-19T01:29:23;12.20;;;5.60;;
72117;SDS011;59992;47.490;8.736;2023-01-19T01:31:52;14.40;;;6.90;;
72117;SDS011;59992;47.490;8.736;2023-01-19T01:34:22;14.90;;;6.10;;
72117;SDS011;59992;47.490;8.736;2023-01-19T01:36:52;13.80;;;6.00;;
72117;SDS011;59992;47.490;8.736;2023-01-19T01:39:21;12.80;;;6.20;;
72117;SDS011;59992;47.490;8.736;2023-01-19T01:41:51;12.60;;;5.90;;
72117;SDS011;59992;47.490;8.736;2023-01-19T01:47:21;11.10;;;5.40;;
72117;SDS011;59992;47.490;8.736;2023-01-19T01:49:58;11.70;;;5.70;;
72117;SDS011;59992;47.490;8.736;2023-01-19T01:52:33;13.60;;;5.40;;
72117;SDS011;59992;47.490;8.736;2023-01-19T01:55:05;12.40;;;5.90;;
72117;SDS011;59992;47.490;8.736;2023-01-19T01:57:37;14.00;;;5.80;;
72117;SDS011;59992;47.490;8.736;2023-01-19T02:00:11;12.90;;;6.20;;
72117;SDS011;59992;47.490;8.736;2023-01-19T02:02:43;11.60;;;5.20;;
72117;SDS011;59992;47.490;8.736;2023-01-19T02:05:21;10.40;;;4.90;;
72117;SDS011;59992;47.490;8.736;2023-01-19T02:07:56;11.00;;;5.40;;
72117;SDS011;59992;47.490;8.736;2023-01-19T02:10:47;14.10;;;6.50;;
72117;SDS011;59992;47.490;8.736;2023-01-19T02:13:40;12.40;;;6.40;;
72117;SDS011;59992;47.490;8.736;2023-01-19T02:16:12;10.60;;;5.30;;
72117;SDS011;59992;47.490;8.736;2023-01-19T02:18:57;11.30;;;5.30;;
72117;SDS011;59992;47.490;8.736;2023-01-19T02:21:29;13.20;;;5.90;;
72117;SDS011;59992;47.490;8.736;2023-01-19T02:24:13;11.00;;;5.60;;
72117;SDS011;59992;47.490;8.736;2023-01-19T02:26:43;11.50;;;5.70;;
72117;SDS011;59992;47.490;8.736;2023-01-19T02:29:16;13.30;;;5.50;;
72117;SDS011;59992;47.490;8.736;2023-01-19T02:31:48;18.20;;;6.00;;
72117;SDS011;59992;47.490;8.736;2023-01-19T02:34:18;13.60;;;5.80;;
72117;SDS011;59992;47.490;8.736;2023-01-19T02:36:49;10.50;;;5.20;;
72117;SDS011;59992;47.490;8.736;2023-01-19T02:39:23;11.10;;;4.70;;
72117;SDS011;59992;47.490;8.736;2023-01-19T02:42:01;13.00;;;5.60;;
72117;SDS011;59992;47.490;8.736;2023-01-19T02:44:37;12.10;;;5.00;;
72117;SDS011;59992;47.490;8.736;2023-01-19T02:47:11;11.60;;;5.30;;
72117;SDS011;59992;47.490;8.736;2023-01-19T02:49:41;13.40;;;5.60;;
72117;SDS011;59992;47.490;8.736;2023-01-19T02:52:12;12.00;;;5.20;;
72117;SDS011;59992;47.490;8.736;2023-01-19T02:54:57;10.40;;;5.00;;
72117;SDS011;59992;47.490;8.736;2023-01-19T02:57:43;13.50;;;5.60;;
72117;SDS011;59992;47.490;8.736;2023-01-19T03:00:26;10.60;;;5.40;;
72117;SDS011;59992;47.490;8.736;2023-01-19T03:03:11;11.60;;;5.80;;
72117;SDS011;59992;47.490;8.736;2023-01-19T03:05:56;10.70;;;5.20;;
72117;SDS011;59992;47.490;8.736;2023-01-19T03:08:31;12.90;;;5.50;;
72117;SDS011;59992;47.490;8.736;2023-01-19T03:11:11;12.50;;;5.50;;
72117;SDS011;59992;47.490;8.736;2023-01-19T03:13:43;14.70;;;5.90;;
72117;SDS011;59992;47.490;8.736;2023-01-19T03:16:18;14.40;;;6.10;;
72117;SDS011;59992;47.490;8.736;2023-01-19T03:18:53;16.50;;;6.10;;
72117;SDS011;59992;47.490;8.736;2023-01-19T03:21:27;13.50;;;6.10;;
72117;SDS011;59992;47.490;8.736;2023-01-19T03:24:00;12.60;;;6.20;;
72117;SDS011;59992;47.490;8.736;2023-01-19T03:26:34;13.40;;;5.20;;
72117;SDS011;59992;47.490;8.736;2023-01-19T03:29:06;11.20;;;5.40;;
72117;SDS011;59992;47.490;8.736;2023-01-19T03:31:40;11.90;;;5.80;;
72117;SDS011;59992;47.490;8.736;2023-01-19T03:34:12;11.80;;;5.60;;
72117;SDS011;59992;47.490;8.736;2023-01-19T03:36:44;11.40;;;4.10;;
72117;SDS011;59992;47.490;8.736;2023-01-19T03:39:20;10.70;;;5.30;;
72117;SDS011;59992;47.490;8.736;2023-01-19T03:41:51;12.70;;;5.40;;
72117;SDS011;59992;47.490;8.736;2023-01-19T03:44:24;12.50;;;5.90;;
72117;SDS011;59992;47.490;8.736;2023-01-19T03:46:56;12.00;;;5.60;;
72117;SDS011;59992;47.490;8.736;2023-01-19T03:49:27;12.00;;;5.60;;
72117;SDS011;59992;47.490;8.736;2023-01-19T03:52:00;12.60;;;5.90;;
72117;SDS011;59992;47.490;8.736;2023-01-19T03:54:30;16.10;;;6.10;;
72117;SDS011;59992;47.490;8.736;2023-01-19T03:57:00;12.70;;;6.00;;
72117;SDS011;59992;47.490;8.736;2023-01-19T03:59:30;11.30;;;5.50;;
72117;SDS011;59992;47.490;8.736;2023-01-19T04:02:00;12.90;;;6.40;;
72117;SDS011;59992;47.490;8.736;2023-01-19T04:04:30;14.20;;;6.00;;
72117;SDS011;59992;47.490;8.736;2023-01-19T04:07:00;14.60;;;6.10;;
72117;SDS011;59992;47.490;8.736;2023-01-19T04:09:30;14.50;;;6.60;;
72117;SDS011;59992;47.490;8.736;2023-01-19T04:11:59;17.00;;;6.60;;
72117;SDS011;59992;47.490;8.736;2023-01-19T04:14:30;12.90;;;6.50;;
72117;SDS011;59992;47.490;8.736;2023-01-19T04:16:59;13.60;;;6.30;;
72117;SDS011;59992;47.490;8.736;2023-01-19T04:19:29;15.00;;;5.40;;
72117;SDS011;59992;47.490;8.736;2023-01-19T04:21:58;12.80;;;5.70;;
72117;SDS011;59992;47.490;8.736;2023-01-19T04:24:29;12.70;;;5.60;;
72117;SDS011;59992;47.490;8.736;2023-01-19T04:26:59;14.30;;;7.20;;
72117;SDS011;59992;47.490;8.736;2023-01-19T04:29:29;10.80;;;4.90;;
72117;SDS011;59992;47.490;8.736;2023-01-19T04:31:59;14.00;;;5.90;;
72117;SDS011;59992;47.490;8.736;2023-01-19T04:34:29;13.40;;;5.80;;
72117;SDS011;59992;47.490;8.736;2023-01-19T04:37:00;14.00;;;5.80;;
72117;SDS011;59992;47.490;8.736;2023-01-19T04:39:30;14.50;;;5.90;;
72117;SDS011;59992;47.490;8.736;2023-01-19T04:42:00;16.90;;;6.30;;
72117;SDS011;59992;47.490;8.736;2023-01-19T04:44:30;11.90;;;5.90;;
72117;SDS011;59992;47.490;8.736;2023-01-19T04:46:59;11.60;;;5.60;;
72117;SDS011;59992;47.490;8.736;2023-01-19T04:49:29;13.20;;;6.20;;
72117;SDS011;59992;47.490;8.736;2023-01-19T04:51:59;16.00;;;6.50;;
72117;SDS011;59992;47.490;8.736;2023-01-19T04:54:35;15.70;;;6.30;;
72117;SDS011;59992;47.490;8.736;2023-01-19T04:57:05;12.10;;;5.80;;
72117;SDS011;59992;47.490;8.736;2023-01-19T04:59:34;11.90;;;5.50;;
72117;SDS011;59992;47.490;8.736;2023-01-19T05:02:04;14.30;;;6.20;;
72117;SDS011;59992;47.490;8.736;2023-01-19T05:04:33;12.10;;;6.10;;
72117;SDS011;59992;47.490;8.736;2023-01-19T05:07:03;13.00;;;6.30;;
72117;SDS011;59992;47.490;8.736;2023-01-19T05:09:33;15.60;;;5.80;;
72117;SDS011;59992;47.490;8.736;2023-01-19T05:12:02;13.50;;;6.20;;
72117;SDS011;59992;47.490;8.736;2023-01-19T05:14:34;16.70;;;6.60;;
72117;SDS011;59992;47.490;8.736;2023-01-19T05:17:03;12.40;;;5.90;;
72117;SDS011;59992;47.490;8.736;2023-01-19T05:19:33;12.20;;;5.80;;
72117;SDS011;59992;47.490;8.736;2023-01-19T05:22:02;14.30;;;5.60;;
72117;SDS011;59992;47.490;8.736;2023-01-19T05:24:32;13.90;;;5.70;;
72117;SDS011;59992;47.490;8.736;2023-01-19T05:27:02;13.50;;;5.90;;
72117;SDS011;59992;47.490;8.736;2023-01-19T05:29:32;18.40;;;6.90;;
72117;SDS011;59992;47.490;8.736;2023-01-19T05:32:02;13.30;;;6.10;;
72117;SDS011;59992;47.490;8.736;2023-01-19T05:34:32;11.30;;;6.00;;
72117;SDS011;59992;47.490;8.736;2023-01-19T05:37:01;13.20;;;5.70;;
72117;SDS011;59992;47.490;8.736;2023-01-19T05:39:31;14.40;;;6.00;;
72117;SDS011;59992;47.490;8.736;2023-01-19T05:42:01;13.80;;;5.70;;
72117;SDS011;59992;47.490;8.736;2023-01-19T05:44:30;12.50;;;5.40;;
72117;SDS011;59992;47.490;8.736;2023-01-19T05:47:00;12.70;;;6.20;;
72117;SDS011;59992;47.490;8.736;2023-01-19T05:49:30;13.00;;;5.60;;
72117;SDS011;59992;47.490;8.736;2023-01-19T05:52:02;13.10;;;6.00;;
72117;SDS011;59992;47.490;8.736;2023-01-19T05:54:42;12.40;;;5.90;;
72117;SDS011;59992;47.490;8.736;2023-01-19T05:57:14;15.70;;;6.20;;
72117;SDS011;59992;47.490;8.736;2023-01-19T05:59:46;16.70;;;6.40;;
72117;SDS011;59992;47.490;8.736;2023-01-19T06:02:16;7.70;;;2.70;;
72117;SDS011;59992;47.490;8.736;2023-01-19T06:04:46;10.00;;;4.40;;
72117;SDS011;59992;47.490;8.736;2023-01-19T06:07:16;14.20;;;5.90;;
72117;SDS011;59992;47.490;8.736;2023-01-19T06:09:47;13.70;;;5.70;;
72117;SDS011;59992;47.490;8.736;2023-01-19T06:12:17;15.20;;;6.40;;
72117;SDS011;59992;47.490;8.736;2023-01-19T06:14:47;13.00;;;5.60;;
72117;SDS011;59992;47.490;8.736;2023-01-19T06:17:19;13.20;;;5.50;;
72117;SDS011;59992;47.490;8.736;2023-01-19T06:20:04;12.50;;;5.30;;
72117;SDS011;59992;47.490;8.736;2023-01-19T06:23:01;10.10;;;4.80;;
72117;SDS011;59992;47.490;8.736;2023-01-19T06:25:49;12.60;;;6.00;;
72117;SDS011;59992;47.490;8.736;2023-01-19T06:28:33;14.70;;;5.70;;
72117;SDS011;59992;47.490;8.736;2023-01-19T06:31:03;11.50;;;5.40;;
72117;SDS011;59992;47.490;8.736;2023-01-19T06:33:33;10.60;;;5.40;;
72117;SDS011;59992;47.490;8.736;2023-01-19T06:36:03;12.50;;;5.50;;
72117;SDS011;59992;47.490;8.736;2023-01-19T06:38:33;13.70;;;5.60;;
72117;SDS011;59992;47.490;8.736;2023-01-19T06:41:03;11.30;;;5.10;;
72117;SDS011;59992;47.490;8.736;2023-01-19T06:43:33;14.60;;;5.90;;
72117;SDS011;59992;47.490;8.736;2023-01-19T06:46:03;13.60;;;5.50;;
72117;SDS011;59992;47.490;8.736;2023-01-19T06:48:41;13.00;;;5.30;;
72117;SDS011;59992;47.490;8.736;2023-01-19T06:51:44;11.50;;;5.30;;
72117;SDS011;59992;47.490;8.736;2023-01-19T06:54:14;10.40;;;4.70;;
72117;SDS011;59992;47.490;8.736;2023-01-19T06:56:51;12.20;;;5.40;;
72117;SDS011;59992;47.490;8.736;2023-01-19T06:59:22;12.90;;;4.90;;
72117;SDS011;59992;47.490;8.736;2023-01-19T07:01:54;14.50;;;5.50;;
72117;SDS011;59992;47.490;8.736;2023-01-19T07:04:24;10.80;;;4.70;;
72117;SDS011;59992;47.490;8.736;2023-01-19T07:07:01;9.00;;;4.80;;
72117;SDS011;59992;47.490;8.736;2023-01-19T07:09:31;11.60;;;5.30;;
72117;SDS011;59992;47.490;8.736;2023-01-19T07:12:00;15.10;;;5.80;;
72117;SDS011;59992;47.490;8.736;2023-01-19T07:14:30;15.20;;;5.90;;
72117;SDS011;59992;47.490;8.736;2023-01-19T07:20:23;15.10;;;5.40;;
72117;SDS011;59992;47.490;8.736;2023-01-19T07:22:55;11.70;;;5.50;;
72117;SDS011;59992;47.490;8.736;2023-01-19T07:25:25;11.10;;;5.60;;
72117;SDS011;59992;47.490;8.736;2023-01-19T07:27:59;13.20;;;5.20;;
72117;SDS011;59992;47.490;8.736;2023-01-19T07:30:30;9.70;;;4.90;;
72117;SDS011;59992;47.490;8.736;2023-01-19T07:32:59;10.50;;;4.70;;
72117;SDS011;59992;47.490;8.736;2023-01-19T07:35:29;10.80;;;5.30;;
72117;SDS011;59992;47.490;8.736;2023-01-19T07:37:58;10.40;;;4.90;;
72117;SDS011;59992;47.490;8.736;2023-01-19T07:40:28;13.60;;;4.30;;
72117;SDS011;59992;47.490;8.736;2023-01-19T07:42:59;8.70;;;3.90;;
72117;SDS011;59992;47.490;8.736;2023-01-19T07:45:28;11.20;;;4.80;;
72117;SDS011;59992;47.490;8.736;2023-01-19T07:47:58;8.60;;;4.90;;
72117;SDS011;59992;47.490;8.736;2023-01-19T07:50:28;12.60;;;5.40;;
72117;SDS011;59992;47.490;8.736;2023-01-19T07:53:02;13.00;;;4.80;;
72117;SDS011;59992;47.490;8.736;2023-01-19T07:55:33;11.00;;;4.70;;
72117;SDS011;59992;47.490;8.736;2023-01-19T07:58:03;10.40;;;4.60;;
72117;SDS011;59992;47.490;8.736;2023-01-19T08:00:33;11.20;;;4.40;;
72117;SDS011;59992;47.490;8.736;2023-01-19T08:03:07;10.70;;;5.20;;
72117;SDS011;59992;47.490;8.736;2023-01-19T08:05:38;11.30;;;5.10;;
72117;SDS011;59992;47.490;8.736;2023-01-19T08:08:10;12.50;;;5.40;;
72117;SDS011;59992;47.490;8.736;2023-01-19T08:10:40;11.50;;;5.20;;
72117;SDS011;59992;47.490;8.736;2023-01-19T08:13:10;10.50;;;4.60;;
72117;SDS011;59992;47.490;8.736;2023-01-19T08:15:39;10.50;;;4.70;;
72117;SDS011;59992;47.490;8.736;2023-01-19T08:18:09;11.00;;;5.10;;
72117;SDS011;59992;47.490;8.736;2023-01-19T08:20:41;11.30;;;4.80;;
72117;SDS011;59992;47.490;8.736;2023-01-19T08:23:11;13.40;;;5.30;;
72117;SDS011;59992;47.490;8.736;2023-01-19T08:25:41;11.00;;;5.10;;
72117;SDS011;59992;47.490;8.736;2023-01-19T08:28:13;10.90;;;5.00;;
72117;SDS011;59992;47.490;8.736;2023-01-19T08:30:43;11.10;;;5.70;;
72117;SDS011;59992;47.490;8.736;2023-01-19T08:33:23;10.70;;;4.60;;
72117;SDS011;59992;47.490;8.736;2023-01-19T08:35:58;11.60;;;5.10;;
72117;SDS011;59992;47.490;8.736;2023-01-19T08:38:28;11.10;;;4.90;;
72117;SDS011;59992;47.490;8.736;2023-01-19T08:40:57;9.60;;;4.80;;
72117;SDS011;59992;47.490;8.736;2023-01-19T08:43:27;10.70;;;5.40;;
72117;SDS011;59992;47.490;8.736;2023-01-19T08:45:56;15.60;;;5.40;;
72117;SDS011;59992;47.490;8.736;2023-01-19T08:48:25;13.50;;;5.10;;
72117;SDS011;59992;47.490;8.736;2023-01-19T08:50:55;15.30;;;5.60;;
72117;SDS011;59992;47.490;8.736;2023-01-19T08:53:26;12.60;;;6.60;;
72117;SDS011;59992;47.490;8.736;2023-01-19T08:55:58;12.80;;;5.80;;
72117;SDS011;59992;47.490;8.736;2023-01-19T08:58:28;11.90;;;5.20;;
72117;SDS011;59992;47.490;8.736;2023-01-19T09:00:58;9.60;;;5.60;;
72117;SDS011;59992;47.490;8.736;2023-01-19T09:03:28;11.70;;;5.40;;
72117;SDS011;59992;47.490;8.736;2023-01-19T09:05:57;12.50;;;4.90;;
72117;SDS011;59992;47.490;8.736;2023-01-19T09:08:27;10.90;;;5.00;;
72117;SDS011;59992;47.490;8.736;2023-01-19T09:10:56;11.90;;;4.90;;
72117;SDS011;59992;47.490;8.736;2023-01-19T09:13:26;8.30;;;3.90;;
72117;SDS011;59992;47.490;8.736;2023-01-19T09:15:55;8.60;;;4.30;;
72117;SDS011;59992;47.490;8.736;2023-01-19T09:18:25;9.40;;;4.10;;
72117;SDS011;59992;47.490;8.736;2023-01-19T09:20:55;8.70;;;3.80;;
72117;SDS011;59992;47.490;8.736;2023-01-19T09:23:26;8.70;;;3.90;;
72117;SDS011;59992;47.490;8.736;2023-01-19T09:25:57;6.90;;;3.90;;
72117;SDS011;59992;47.490;8.736;2023-01-19T09:28:28;8.40;;;3.90;;
72117;SDS011;59992;47.490;8.736;2023-01-19T09:31:02;8.50;;;3.40;;
72117;SDS011;59992;47.490;8.736;2023-01-19T09:33:34;7.00;;;3.60;;
72117;SDS011;59992;47.490;8.736;2023-01-19T09:36:04;9.00;;;4.10;;
72117;SDS011;59992;47.490;8.736;2023-01-19T09:38:34;9.10;;;4.10;;
72117;SDS011;59992;47.490;8.736;2023-01-19T09:41:11;6.20;;;2.70;;
72117;SDS011;59992;47.490;8.736;2023-01-19T09:43:47;9.90;;;3.60;;
72117;SDS011;59992;47.490;8.736;2023-01-19T09:46:21;9.90;;;4.20;;
72117;SDS011;59992;47.490;8.736;2023-01-19T09:48:57;9.70;;;4.10;;
72117;SDS011;59992;47.490;8.736;2023-01-19T09:51:32;8.00;;;3.60;;
72117;SDS011;59992;47.490;8.736;2023-01-19T09:54:07;8.60;;;3.80;;
72117;SDS011;59992;47.490;8.736;2023-01-19T09:56:41;5.90;;;2.90;;
72117;SDS011;59992;47.490;8.736;2023-01-19T09:59:16;7.60;;;4.20;;
72117;SDS011;59992;47.490;8.736;2023-01-19T10:01:51;7.60;;;4.00;;
72117;SDS011;59992;47.490;8.736;2023-01-19T10:04:35;9.50;;;4.20;;
72117;SDS011;59992;47.490;8.736;2023-01-19T10:07:10;8.20;;;3.80;;
72117;SDS011;59992;47.490;8.736;2023-01-19T10:13:09;9.30;;;3.60;;
72117;SDS011;59992;47.490;8.736;2023-01-19T10:15:51;4.80;;;2.60;;
72117;SDS011;59992;47.490;8.736;2023-01-19T10:18:39;7.70;;;4.00;;
72117;SDS011;59992;47.490;8.736;2023-01-19T10:21:16;9.70;;;4.00;;
72117;SDS011;59992;47.490;8.736;2023-01-19T10:23:51;9.60;;;4.40;;
72117;SDS011;59992;47.490;8.736;2023-01-19T10:26:24;6.20;;;3.00;;
72117;SDS011;59992;47.490;8.736;2023-01-19T10:29:03;7.90;;;4.00;;
72117;SDS011;59992;47.490;8.736;2023-01-19T10:31:35;10.30;;;4.50;;
72117;SDS011;59992;47.490;8.736;2023-01-19T10:34:09;7.80;;;4.50;;
72117;SDS011;59992;47.490;8.736;2023-01-19T10:36:44;11.60;;;4.80;;
72117;SDS011;59992;47.490;8.736;2023-01-19T10:39:25;7.30;;;4.20;;
72117;SDS011;59992;47.490;8.736;2023-01-19T10:42:02;9.60;;;3.60;;
72117;SDS011;59992;47.490;8.736;2023-01-19T10:44:34;6.80;;;3.70;;
72117;SDS011;59992;47.490;8.736;2023-01-19T10:47:06;10.30;;;4.40;;
72117;SDS011;59992;47.490;8.736;2023-01-19T10:49:42;10.40;;;4.30;;
72117;SDS011;59992;47.490;8.736;2023-01-19T10:52:19;8.60;;;4.40;;
72117;SDS011;59992;47.490;8.736;2023-01-19T10:54:55;8.40;;;3.50;;
72117;SDS011;59992;47.490;8.736;2023-01-19T10:57:27;7.00;;;3.30;;
72117;SDS011;59992;47.490;8.736;2023-01-19T10:59:58;7.10;;;4.00;;
72117;SDS011;59992;47.490;8.736;2023-01-19T11:02:28;6.60;;;3.20;;
72117;SDS011;59992;47.490;8.736;2023-01-19T11:04:59;10.40;;;4.90;;
72117;SDS011;59992;47.490;8.736;2023-01-19T11:07:47;8.50;;;4.10;;
72117;SDS011;59992;47.490;8.736;2023-01-19T11:10:20;8.00;;;4.00;;
72117;SDS011;59992;47.490;8.736;2023-01-19T11:13:02;7.90;;;4.20;;
72117;SDS011;59992;47.490;8.736;2023-01-19T11:15:41;9.60;;;4.70;;
72117;SDS011;59992;47.490;8.736;2023-01-19T11:18:18;11.20;;;4.40;;
72117;SDS011;59992;47.490;8.736;2023-01-19T11:20:54;6.60;;;3.70;;
72117;SDS011;59992;47.490;8.736;2023-01-19T11:23:27;8.00;;;3.40;;
72117;SDS011;59992;47.490;8.736;2023-01-19T11:26:00;9.30;;;4.00;;
72117;SDS011;59992;47.490;8.736;2023-01-19T11:28:34;6.10;;;3.40;;
72117;SDS011;59992;47.490;8.736;2023-01-19T11:31:16;6.10;;;3.60;;
72117;SDS011;59992;47.490;8.736;2023-01-19T11:33:58;7.10;;;3.20;;
72117;SDS011;59992;47.490;8.736;2023-01-19T11:36:29;4.80;;;2.70;;
72117;SDS011;59992;47.490;8.736;2023-01-19T11:39:14;9.60;;;4.10;;
72117;SDS011;59992;47.490;8.736;2023-01-19T11:41:51;7.00;;;3.20;;
72117;SDS011;59992;47.490;8.736;2023-01-19T11:44:23;7.80;;;3.70;;
72117;SDS011;59992;47.490;8.736;2023-01-19T11:46:57;4.60;;;2.90;;
72117;SDS011;59992;47.490;8.736;2023-01-19T11:49:30;8.00;;;3.80;;
72117;SDS011;59992;47.490;8.736;2023-01-19T11:52:10;6.00;;;2.80;;
72117;SDS011;59992;47.490;8.736;2023-01-19T11:54:48;7.10;;;3.70;;
72117;SDS011;59992;47.490;8.736;2023-01-19T11:57:23;8.60;;;3.60;;
72117;SDS011;59992;47.490;8.736;2023-01-19T11:59:54;6.50;;;3.30;;
72117;SDS011;59992;47.490;8.736;2023-01-19T12:02:42;8.20;;;3.50;;
72117;SDS011;59992;47.490;8.736;2023-01-19T12:05:17;6.20;;;3.50;;
72117;SDS011;59992;47.490;8.736;2023-01-19T12:07:49;6.80;;;3.50;;
72117;SDS011;59992;47.490;8.736;2023-01-19T12:10:23;7.20;;;3.70;;
72117;SDS011;59992;47.490;8.736;2023-01-19T12:12:55;6.20;;;3.40;;
72117;SDS011;59992;47.490;8.736;2023-01-19T12:15:28;6.60;;;3.20;;
72117;SDS011;59992;47.490;8.736;2023-01-19T12:18:03;5.30;;;2.80;;
72117;SDS011;59992;47.490;8.736;2023-01-19T12:20:37;5.00;;;2.70;;
72117;SDS011;59992;47.490;8.736;2023-01-19T12:23:17;5.10;;;2.60;;
72117;SDS011;59992;47.490;8.736;2023-01-19T12:26:00;7.50;;;3.40;;
72117;SDS011;59992;47.490;8.736;2023-01-19T12:28:45;5.50;;;3.00;;
72117;SDS011;59992;47.490;8.736;2023-01-19T12:31:17;4.50;;;2.50;;
72117;SDS011;59992;47.490;8.736;2023-01-19T12:33:48;4.80;;;2.30;;
72117;SDS011;59992;47.490;8.736;2023-01-19T12:36:37;6.00;;;2.60;;
72117;SDS011;59992;47.490;8.736;2023-01-19T12:39:12;5.60;;;3.20;;
72117;SDS011;59992;47.490;8.736;2023-01-19T12:41:46;6.40;;;3.30;;
72117;SDS011;59992;47.490;8.736;2023-01-19T12:44:31;6.10;;;3.00;;
72117;SDS011;59992;47.490;8.736;2023-01-19T12:47:15;4.40;;;1.90;;
72117;SDS011;59992;47.490;8.736;2023-01-19T12:49:48;6.20;;;2.40;;
72117;SDS011;59992;47.490;8.736;2023-01-19T12:52:28;5.00;;;2.50;;
72117;SDS011;59992;47.490;8.736;2023-01-19T12:55:02;3.40;;;1.80;;
72117;SDS011;59992;47.490;8.736;2023-01-19T12:57:47;4.80;;;2.20;;
72117;SDS011;59992;47.490;8.736;2023-01-19T13:00:29;3.90;;;2.10;;
72117;SDS011;59992;47.490;8.736;2023-01-19T13:03:01;6.90;;;2.00;;
72117;SDS011;59992;47.490;8.736;2023-01-19T13:08:30;3.80;;;1.90;;
72117;SDS011;59992;47.490;8.736;2023-01-19T13:11:26;3.70;;;1.90;;
72117;SDS011;59992;47.490;8.736;2023-01-19T13:17:02;3.60;;;1.70;;
72117;SDS011;59992;47.490;8.736;2023-01-19T13:26:04;3.40;;;1.90;;
72117;SDS011;59992;47.490;8.736;2023-01-19T13:28:42;5.00;;;1.60;;
72117;SDS011;59992;47.490;8.736;2023-01-19T13:31:15;2.70;;;1.80;;
72117;SDS011;59992;47.490;8.736;2023-01-19T13:33:46;6.50;;;2.60;;
72117;SDS011;59992;47.490;8.736;2023-01-19T13:36:20;6.60;;;2.30;;
72117;SDS011;59992;47.490;8.736;2023-01-19T13:38:53;8.60;;;3.20;;
72117;SDS011;59992;47.490;8.736;2023-01-19T13:41:24;3.70;;;2.00;;
72117;SDS011;59992;47.490;8.736;2023-01-19T13:43:58;4.60;;;1.70;;
72117;SDS011;59992;47.490;8.736;2023-01-19T13:46:30;4.00;;;1.90;;
72117;SDS011;59992;47.490;8.736;2023-01-19T13:49:01;5.00;;;1.70;;
72117;SDS011;59992;47.490;8.736;2023-01-19T13:51:40;4.20;;;2.00;;
72117;SDS011;59992;47.490;8.736;2023-01-19T13:54:13;3.30;;;1.50;;
72117;SDS011;59992;47.490;8.736;2023-01-19T13:56:46;5.90;;;2.90;;
72117;SDS011;59992;47.490;8.736;2023-01-19T13:59:16;4.60;;;2.30;;
72117;SDS011;59992;47.490;8.736;2023-01-19T14:01:46;6.60;;;2.40;;
72117;SDS011;59992;47.490;8.736;2023-01-19T14:04:26;5.20;;;2.40;;
72117;SDS011;59992;47.490;8.736;2023-01-19T14:06:57;5.60;;;2.40;;
72117;SDS011;59992;47.490;8.736;2023-01-19T14:09:29;4.10;;;2.20;;
72117;SDS011;59992;47.490;8.736;2023-01-19T14:12:12;4.60;;;2.30;;
72117;SDS011;59992;47.490;8.736;2023-01-19T14:14:45;3.90;;;1.80;;
72117;SDS011;59992;47.490;8.736;2023-01-19T14:17:22;2.70;;;1.50;;
72117;SDS011;59992;47.490;8.736;2023-01-19T14:19:54;5.40;;;2.20;;
72117;SDS011;59992;47.490;8.736;2023-01-19T14:22:40;4.00;;;2.00;;
72117;SDS011;59992;47.490;8.736;2023-01-19T14:25:30;4.20;;;2.10;;
72117;SDS011;59992;47.490;8.736;2023-01-19T14:31:01;4.10;;;1.80;;
72117;SDS011;59992;47.490;8.736;2023-01-19T14:33:44;3.50;;;2.00;;
72117;SDS011;59992;47.490;8.736;2023-01-19T14:36:24;6.10;;;2.10;;
72117;SDS011;59992;47.490;8.736;2023-01-19T14:38:57;4.20;;;1.60;;
72117;SDS011;59992;47.490;8.736;2023-01-19T14:41:29;3.00;;;1.80;;
72117;SDS011;59992;47.490;8.736;2023-01-19T14:44:08;4.00;;;1.70;;
72117;SDS011;59992;47.490;8.736;2023-01-19T14:46:44;3.10;;;1.70;;
72117;SDS011;59992;47.490;8.736;2023-01-19T14:49:17;4.00;;;2.00;;
72117;SDS011;59992;47.490;8.736;2023-01-19T14:51:56;3.20;;;1.50;;
72117;SDS011;59992;47.490;8.736;2023-01-19T14:54:28;4.60;;;1.70;;
72117;SDS011;59992;47.490;8.736;2023-01-19T14:57:01;3.20;;;1.60;;
72117;SDS011;59992;47.490;8.736;2023-01-19T14:59:31;3.20;;;1.80;;
72117;SDS011;59992;47.490;8.736;2023-01-19T15:02:01;3.10;;;1.60;;
72117;SDS011;59992;47.490;8.736;2023-01-19T15:04:31;4.20;;;1.80;;
72117;SDS011;59992;47.490;8.736;2023-01-19T15:07:00;4.70;;;2.20;;
72117;SDS011;59992;47.490;8.736;2023-01-19T15:09:30;4.40;;;1.70;;
72117;SDS011;59992;47.490;8.736;2023-01-19T15:12:00;2.90;;;1.60;;
72117;SDS011;59992;47.490;8.736;2023-01-19T15:14:30;5.60;;;2.40;;
72117;SDS011;59992;47.490;8.736;2023-01-19T15:17:00;3.00;;;1.30;;
72117;SDS011;59992;47.490;8.736;2023-01-19T15:19:29;4.20;;;1.80;;
72117;SDS011;59992;47.490;8.736;2023-01-19T15:22:00;5.60;;;2.30;;
72117;SDS011;59992;47.490;8.736;2023-01-19T15:24:35;4.20;;;1.90;;
72117;SDS011;59992;47.490;8.736;2023-01-19T15:27:08;2.80;;;1.60;;
72117;SDS011;59992;47.490;8.736;2023-01-19T15:29:38;3.10;;;1.60;;
72117;SDS011;59992;47.490;8.736;2023-01-19T15:32:10;6.00;;;1.60;;
72117;SDS011;59992;47.490;8.736;2023-01-19T15:34:41;5.10;;;2.20;;
72117;SDS011;59992;47.490;8.736;2023-01-19T15:37:10;3.90;;;1.90;;
72117;SDS011;59992;47.490;8.736;2023-01-19T15:39:40;2.50;;;1.30;;
72117;SDS011;59992;47.490;8.736;2023-01-19T15:42:10;4.20;;;1.80;;